Time;durP1;ratioP1;P1;durP2;ratioP2;P2;SDS_P1;SDS_P2;PMS_P1;PMS_P2;Temp;Humidity;BMP_temperature;BMP_pressure;BME280_temperature;BME280_humidity;BME280_pressure;Samples;Min_cycle;Max_cycle;Signal;HPM_P1;HPM_P2
2021/12/11 00:01:48;;;;;;;0.60;0.60;;;0.90;99.90;;;;;;4415755;32;20355;-67
2021/12/11 00:04:21;;;;;;;3.03;1.77;;;0.80;99.90;;;;;;4417395;32;20391;-68
2021/12/11 00:06:49;;;;;;;0.73;0.73;;;0.70;99.90;;;;;;4418732;32;20097;-69
2021/12/11 00:09:22;;;;;;;0.65;0.65;;;0.70;99.90;;;;;;4414413;32;20089;-68
2021/12/11 00:11:55;;;;;;;0.57;0.57;;;0.60;99.90;;;;;;4421122;32;20062;-68
2021/12/11 00:14:23;;;;;;;0.45;0.45;;;0.60;99.90;;;;;;4417424;32;20060;-68
2021/12/11 00:16:49;;;;;;;3.80;1.87;;;0.70;99.90;;;;;;4418111;32;20279;-68
2021/12/11 00:19:21;;;;;;;2.40;1.48;;;0.70;99.90;;;;;;4420354;32;20077;-68
2021/12/11 00:21:47;;;;;;;1.65;1.23;;;0.70;99.90;;;;;;4418297;32;20224;-69
2021/12/11 00:24:19;;;;;;;0.40;0.40;;;0.70;99.90;;;;;;4416511;32;20065;-68
2021/12/11 00:26:48;;;;;;;0.60;0.60;;;0.70;99.90;;;;;;4417359;32;20078;-69
2021/12/11 00:29:18;;;;;;;1.95;1.55;;;0.80;99.90;;;;;;4416077;32;20079;-68
2021/12/11 00:31:48;;;;;;;0.70;0.70;;;0.70;99.90;;;;;;4418529;32;20123;-68
2021/12/11 00:34:16;;;;;;;1.30;1.03;;;0.70;99.90;;;;;;4420181;32;20546;-67
2021/12/11 00:36:50;;;;;;;0.70;0.70;;;0.60;99.90;;;;;;4416865;32;20070;-68
2021/12/11 00:39:18;;;;;;;0.62;0.62;;;0.70;99.90;;;;;;4417955;32;20709;-67
2021/12/11 00:41:50;;;;;;;1.15;1.15;;;0.70;99.90;;;;;;4416514;32;20061;-68
2021/12/11 00:44:16;;;;;;;1.33;1.23;;;0.70;99.90;;;;;;4419972;32;20436;-68
2021/12/11 00:46:41;;;;;;;2.62;1.48;;;0.70;99.90;;;;;;4423993;32;20055;-68
2021/12/11 00:49:11;;;;;;;0.70;0.70;;;0.70;99.90;;;;;;4418752;32;20066;-68
2021/12/11 00:51:36;;;;;;;0.98;0.98;;;0.70;99.90;;;;;;4420311;32;20058;-68
2021/12/11 00:54:03;;;;;;;0.93;0.93;;;0.70;99.90;;;;;;4418674;32;20081;-68
2021/12/11 00:56:32;;;;;;;1.95;1.27;;;0.70;99.90;;;;;;4418219;32;20078;-68
2021/12/11 00:59:03;;;;;;;0.65;0.65;;;0.80;99.90;;;;;;4422259;32;20077;-67
2021/12/11 01:01:33;;;;;;;0.80;0.80;;;0.70;99.90;;;;;;4422036;32;20057;-68
2021/12/11 01:04:20;;;;;;;7.15;1.95;;;0.70;99.90;;;;;;4422405;32;20082;-68
2021/12/11 01:06:52;;;;;;;0.55;0.55;;;0.80;99.90;;;;;;4425261;32;20155;-68
2021/12/11 01:09:25;;;;;;;1.50;1.40;;;0.80;99.90;;;;;;4418616;32;20078;-69
2021/12/11 01:12:01;;;;;;;0.45;0.45;;;0.80;99.90;;;;;;4418872;32;20159;-68
2021/12/11 01:14:38;;;;;;;2.10;1.95;;;0.80;99.90;;;;;;4417017;32;20069;-69
2021/12/11 01:17:10;;;;;;;0.93;0.88;;;0.90;99.90;;;;;;4428758;32;20516;-68
2021/12/11 01:19:39;;;;;;;0.90;0.90;;;1.00;99.90;;;;;;4423457;32;20099;-68
2021/12/11 01:22:19;;;;;;;1.45;0.80;;;1.00;99.90;;;;;;4421481;32;20120;-68
2021/12/11 01:24:46;;;;;;;3.40;1.20;;;1.20;99.90;;;;;;4421598;32;20109;-68
2021/12/11 01:27:15;;;;;;;0.65;0.65;;;1.00;99.90;;;;;;4420771;32;20124;-68
2021/12/11 01:29:42;;;;;;;2.33;2.12;;;1.00;99.90;;;;;;4421355;32;20082;-68
2021/12/11 01:32:08;;;;;;;1.45;1.37;;;1.00;99.90;;;;;;4421082;32;20530;-67
2021/12/11 01:34:34;;;;;;;0.85;0.75;;;1.00;99.90;;;;;;4421868;32;20857;-68
2021/12/11 01:37:00;;;;;;;2.83;1.42;;;1.00;99.90;;;;;;4417875;32;20070;-69
2021/12/11 01:39:30;;;;;;;1.48;0.93;;;1.00;99.90;;;;;;4420700;32;20588;-68
2021/12/11 01:41:56;;;;;;;0.50;0.50;;;0.80;99.90;;;;;;4423561;32;20369;-68
2021/12/11 01:44:29;;;;;;;3.72;1.67;;;0.80;99.90;;;;;;4419332;32;20420;-68
2021/12/11 01:47:00;;;;;;;1.02;0.93;;;0.80;99.90;;;;;;4422205;32;20538;-68
2021/12/11 01:49:25;;;;;;;;;;;0.90;99.90;;;;;;4419058;32;20501;-68
2021/12/11 01:51:55;;;;;;;1.27;1.17;;;0.90;99.90;;;;;;4422318;32;19945;-70
2021/12/11 01:54:30;;;;;;;5.28;1.90;;;1.00;99.90;;;;;;4420848;32;20485;-67
2021/12/11 01:57:00;;;;;;;0.95;0.90;;;1.00;99.90;;;;;;4418581;32;20066;-69
2021/12/11 01:59:31;;;;;;;2.45;2.25;;;0.90;99.90;;;;;;4425186;32;20424;-66
2021/12/11 02:02:03;;;;;;;1.37;1.33;;;0.90;99.90;;;;;;4421397;32;20418;-68
2021/12/11 02:04:32;;;;;;;5.90;1.15;;;0.90;99.90;;;;;;4422301;32;20502;-67
2021/12/11 02:07:06;;;;;;;2.80;1.27;;;0.90;99.90;;;;;;4416543;32;20437;-68
2021/12/11 02:09:34;;;;;;;0.70;0.70;;;0.90;99.90;;;;;;4422103;32;20626;-69
2021/12/11 02:12:25;;;;;;;3.72;1.30;;;0.90;99.90;;;;;;4424052;32;20074;-68
2021/12/11 02:14:53;;;;;;;0.55;0.55;;;0.90;99.90;;;;;;4411227;32;20120;-68
2021/12/11 02:17:21;;;;;;;0.98;0.95;;;0.80;99.90;;;;;;4420342;32;20065;-68
2021/12/11 02:19:49;;;;;;;3.75;1.73;;;0.90;99.90;;;;;;4418845;32;20074;-68
2021/12/11 02:22:20;;;;;;;4.80;1.90;;;1.00;99.90;;;;;;4422741;32;20092;-67
2021/12/11 02:24:51;;;;;;;0.60;0.60;;;1.00;99.90;;;;;;4420535;32;20443;-69
2021/12/11 02:27:19;;;;;;;;;;;0.90;99.90;;;;;;4425343;32;20069;-68
2021/12/11 02:30:09;;;;;;;15.90;3.00;;;0.80;99.90;;;;;;4420396;32;20374;-68
2021/12/11 02:32:41;;;;;;;1.15;1.15;;;0.90;99.90;;;;;;4413572;32;20840;-68
2021/12/11 02:35:11;;;;;;;0.73;0.73;;;0.80;99.90;;;;;;4421904;32;20540;-68
2021/12/11 02:37:49;;;;;;;0.75;0.75;;;0.90;99.90;;;;;;4420162;32;20239;-68
2021/12/11 02:40:29;;;;;;;2.35;1.85;;;1.00;99.90;;;;;;4424491;32;20061;-68
2021/12/11 02:43:00;;;;;;;1.62;1.52;;;1.00;99.90;;;;;;4421213;32;20117;-68
2021/12/11 02:45:32;;;;;;;1.20;0.98;;;1.00;99.90;;;;;;4420200;32;20533;-68
2021/12/11 02:48:05;;;;;;;1.33;1.25;;;1.00;99.90;;;;;;4422042;32;20526;-67
2021/12/11 02:50:36;;;;;;;1.90;1.37;;;1.00;99.90;;;;;;4416621;32;20110;-68
2021/12/11 02:53:17;;;;;;;3.87;1.70;;;1.10;99.90;;;;;;4418271;32;20090;-68
2021/12/11 02:55:51;;;;;;;1.00;1.00;;;1.10;99.90;;;;;;4420710;32;20138;-69
2021/12/11 02:58:22;;;;;;;9.32;3.58;;;1.00;99.90;;;;;;4427120;32;20081;-68
2021/12/11 03:00:55;;;;;;;19.70;3.87;;;0.90;99.90;;;;;;4425250;32;20086;-68
2021/12/11 03:03:29;;;;;;;1.42;1.35;;;0.90;99.90;;;;;;4424184;32;20046;-68
2021/12/11 03:06:04;;;;;;;0.40;0.40;;;0.80;99.90;;;;;;4415601;32;20407;-68
2021/12/11 03:08:30;;;;;;;0.82;0.82;;;0.80;99.90;;;;;;4420076;32;20108;-68
2021/12/11 03:11:01;;;;;;;0.60;0.60;;;0.80;99.90;;;;;;4421108;32;20116;-69
2021/12/11 03:13:29;;;;;;;0.73;0.73;;;0.90;99.90;;;;;;4419163;32;20227;-68
2021/12/11 03:15:55;;;;;;;0.70;0.70;;;0.90;99.90;;;;;;4420072;32;20073;-67
2021/12/11 03:18:21;;;;;;;2.75;2.25;;;0.80;99.90;;;;;;4417739;32;20546;-68
2021/12/11 03:20:48;;;;;;;0.50;0.50;;;0.80;99.90;;;;;;4416459;32;20581;-68
2021/12/11 03:23:14;;;;;;;1.45;1.35;;;0.90;99.90;;;;;;4419730;32;20129;-68
2021/12/11 03:25:41;;;;;;;1.40;1.20;;;0.90;99.90;;;;;;4423064;32;20124;-68
2021/12/11 03:28:09;;;;;;;0.77;0.73;;;1.00;99.90;;;;;;4420139;32;20530;-69
2021/12/11 03:30:39;;;;;;;1.48;1.37;;;1.10;99.90;;;;;;4424276;32;20065;-69
2021/12/11 03:33:13;;;;;;;21.98;1.98;;;1.20;99.90;;;;;;4413253;32;20085;-68
2021/12/11 03:35:40;;;;;;;2.10;1.27;;;1.10;99.90;;;;;;4420019;32;20087;-69
2021/12/11 03:38:06;;;;;;;0.73;0.73;;;1.10;99.90;;;;;;4415824;32;20077;-68
2021/12/11 03:40:33;;;;;;;2.72;1.73;;;1.00;99.90;;;;;;4421290;32;20510;-68
2021/12/11 03:43:00;;;;;;;0.57;0.57;;;0.90;99.90;;;;;;4424380;32;20073;-68
2021/12/11 03:45:30;;;;;;;2.08;1.50;;;0.90;99.90;;;;;;4420439;32;20533;-68
2021/12/11 03:48:03;;;;;;;1.40;1.08;;;0.90;99.90;;;;;;4416857;32;20070;-68
2021/12/11 03:50:29;;;;;;;0.70;0.70;;;1.10;99.90;;;;;;4417584;32;20071;-67
2021/12/11 03:52:56;;;;;;;0.88;0.88;;;1.10;99.90;;;;;;4418198;32;20440;-68
2021/12/11 03:55:30;;;;;;;4.68;2.47;;;1.20;99.90;;;;;;4416769;32;20513;-69
2021/12/11 03:58:00;;;;;;;0.95;0.93;;;1.30;99.90;;;;;;4423897;32;20600;-68
2021/12/11 04:00:32;;;;;;;1.48;1.10;;;1.30;99.90;;;;;;4423248;32;20455;-69
2021/12/11 04:03:03;;;;;;;3.95;1.65;;;1.30;99.90;;;;;;4419446;32;20062;-68
2021/12/11 04:05:32;;;;;;;1.17;1.15;;;1.30;99.90;;;;;;4419226;32;20124;-68
2021/12/11 04:07:58;;;;;;;0.95;0.95;;;1.20;99.90;;;;;;4420546;32;20131;-69
2021/12/11 04:10:27;;;;;;;1.40;1.30;;;1.20;99.90;;;;;;4415830;32;20065;-67
2021/12/11 04:12:56;;;;;;;1.37;0.95;;;1.10;99.90;;;;;;4421826;32;20062;-68
2021/12/11 04:15:22;;;;;;;1.45;1.20;;;1.00;99.90;;;;;;4420699;32;20120;-68
2021/12/11 04:17:48;;;;;;;0.73;0.65;;;1.10;99.90;;;;;;4423309;32;20081;-68
2021/12/11 04:20:17;;;;;;;0.60;0.60;;;1.10;99.90;;;;;;4425823;32;20082;-69
2021/12/11 04:22:43;;;;;;;0.50;0.50;;;1.10;99.90;;;;;;4430140;32;20420;-68
2021/12/11 04:25:10;;;;;;;0.65;0.65;;;1.10;99.90;;;;;;4419758;32;20120;-68
2021/12/11 04:27:36;;;;;;;0.88;0.77;;;1.10;99.90;;;;;;4420463;32;20177;-68
2021/12/11 04:30:05;;;;;;;1.25;1.20;;;1.10;99.90;;;;;;4423389;32;20517;-68
2021/12/11 04:32:34;;;;;;;0.50;0.50;;;1.00;99.90;;;;;;4424533;32;90843;-68
2021/12/11 04:35:00;;;;;;;0.60;0.60;;;1.00;99.90;;;;;;4418255;32;20483;-68
2021/12/11 04:37:29;;;;;;;0.70;0.70;;;0.90;99.90;;;;;;4426639;32;20049;-67
2021/12/11 04:40:01;;;;;;;5.05;1.00;;;0.90;99.90;;;;;;4419397;32;20058;-68
2021/12/11 04:42:45;;;;;;;0.82;0.82;;;0.90;99.90;;;;;;4426325;32;20057;-68
2021/12/11 04:45:16;;;;;;;0.90;0.90;;;0.80;99.90;;;;;;4423087;32;20065;-69
2021/12/11 04:50:22;;;;;;;0.50;0.50;;;0.80;99.90;;;;;;4423559;32;20149;-68
2021/12/11 04:52:54;;;;;;;0.45;0.45;;;0.90;99.90;;;;;;4424988;32;20139;-67
2021/12/11 04:56:00;;;;;;;0.90;0.90;;;1.00;99.90;;;;;;4423575;32;20491;-67
2021/12/11 05:01:33;;;;;;;1.42;1.20;;;1.00;99.90;;;;;;4423936;32;20536;-69
2021/12/11 05:06:31;;;;;;;3.30;1.70;;;1.00;99.90;;;;;;4415408;32;20138;-68
2021/12/11 05:11:44;;;;;;;1.08;0.85;;;0.90;99.90;;;;;;4421501;32;20157;-68
2021/12/11 05:14:12;;;;;;;2.78;1.90;;;1.00;99.90;;;;;;4427053;32;20160;-68
2021/12/11 05:16:39;;;;;;;0.60;0.60;;;1.00;99.90;;;;;;4423746;32;20054;-67
2021/12/11 05:19:05;;;;;;;0.70;0.70;;;1.00;99.90;;;;;;4424961;32;20521;-68
2021/12/11 05:21:33;;;;;;;0.50;0.50;;;1.00;99.90;;;;;;4418115;32;20098;-69
2021/12/11 05:23:59;;;;;;;0.75;0.75;;;1.00;99.90;;;;;;4424694;32;20066;-68
2021/12/11 05:26:25;;;;;;;0.90;0.90;;;1.00;99.90;;;;;;4421733;32;20073;-68
2021/12/11 05:28:50;;;;;;;1.98;1.48;;;1.00;99.90;;;;;;4417678;32;20065;-68
2021/12/11 05:31:16;;;;;;;3.55;1.90;;;1.00;99.90;;;;;;4422736;32;20112;-68
2021/12/11 05:33:42;;;;;;;0.70;0.70;;;1.00;99.90;;;;;;4422907;32;20098;-68
2021/12/11 05:36:12;;;;;;;1.30;1.20;;;1.00;99.90;;;;;;4416966;32;20066;-68
2021/12/11 05:38:39;;;;;;;1.05;1.05;;;0.90;99.90;;;;;;4423762;32;20058;-68
2021/12/11 05:41:09;;;;;;;0.60;0.60;;;1.00;99.90;;;;;;4421907;32;20542;-69
2021/12/11 05:43:35;;;;;;;0.82;0.82;;;0.80;99.90;;;;;;4421254;32;20140;-68
2021/12/11 05:46:02;;;;;;;0.95;0.80;;;0.80;99.90;;;;;;4416442;32;20074;-67
2021/12/11 05:48:28;;;;;;;0.80;0.80;;;0.80;99.90;;;;;;4425399;32;20061;-68
2021/12/11 05:51:01;;;;;;;1.98;1.42;;;1.00;99.90;;;;;;4420193;32;20065;-68
2021/12/11 05:53:28;;;;;;;1.00;1.00;;;0.90;99.90;;;;;;4419853;32;20419;-67
2021/12/11 05:55:56;;;;;;;0.68;0.68;;;0.90;99.90;;;;;;4417803;32;20065;-68
2021/12/11 05:58:36;;;;;;;1.55;1.12;;;0.90;99.90;;;;;;4422930;32;20124;-68
2021/12/11 06:01:05;;;;;;;0.75;0.75;;;0.90;99.90;;;;;;4412347;32;20431;-68
2021/12/11 06:03:30;;;;;;;0.50;0.50;;;0.80;99.90;;;;;;4420807;32;20066;-68
2021/12/11 06:05:58;;;;;;;0.52;0.52;;;0.80;99.90;;;;;;4420730;32;20098;-67
2021/12/11 06:08:24;;;;;;;0.70;0.70;;;0.80;99.90;;;;;;4422034;32;20554;-68
2021/12/11 06:10:50;;;;;;;0.75;0.75;;;0.80;99.90;;;;;;4421733;32;20115;-67
2021/12/11 06:13:17;;;;;;;0.60;0.60;;;0.80;99.90;;;;;;4422982;32;20416;-67
2021/12/11 06:15:43;;;;;;;1.75;1.23;;;0.90;99.90;;;;;;4423002;32;20521;-69
2021/12/11 06:18:15;;;;;;;0.60;0.60;;;1.00;99.90;;;;;;4424939;32;20058;-68
2021/12/11 06:20:40;;;;;;;0.60;0.60;;;1.10;99.90;;;;;;4423004;32;20061;-68
2021/12/11 06:23:06;;;;;;;1.42;1.25;;;1.10;99.90;;;;;;4419824;32;20389;-68
2021/12/11 06:25:34;;;;;;;1.25;1.15;;;1.10;99.90;;;;;;4422217;32;20078;-68
2021/12/11 06:28:00;;;;;;;1.15;1.02;;;1.10;99.90;;;;;;4420626;32;20133;-69
2021/12/11 06:30:27;;;;;;;0.88;0.88;;;1.20;99.90;;;;;;4415814;32;20838;-68
2021/12/11 06:32:55;;;;;;;0.62;0.62;;;1.20;99.90;;;;;;4423096;32;20061;-68
2021/12/11 06:35:34;;;;;;;0.88;0.88;;;1.20;99.90;;;;;;4418794;32;20070;-68
2021/12/11 06:38:00;;;;;;;0.50;0.50;;;1.20;99.90;;;;;;4422530;32;20529;-68
2021/12/11 06:40:28;;;;;;;0.73;0.73;;;1.20;99.90;;;;;;4429570;32;20081;-68
2021/12/11 06:42:55;;;;;;;0.57;0.57;;;1.20;99.90;;;;;;4421890;32;20066;-69
2021/12/11 06:45:22;;;;;;;0.77;0.77;;;1.10;99.90;;;;;;4421806;32;20505;-68
2021/12/11 06:47:48;;;;;;;0.80;0.80;;;1.10;99.90;;;;;;4419939;32;20581;-68
2021/12/11 06:50:14;;;;;;;1.55;1.40;;;1.10;99.90;;;;;;4422153;32;20061;-68
2021/12/11 06:52:41;;;;;;;1.00;0.75;;;1.20;99.90;;;;;;4420260;32;20503;-67
2021/12/11 06:55:08;;;;;;;0.73;0.73;;;1.20;99.90;;;;;;4419134;32;20070;-69
2021/12/11 06:57:34;;;;;;;5.70;1.87;;;1.20;99.90;;;;;;4424608;32;20081;-69
2021/12/11 07:00:00;;;;;;;0.60;0.60;;;1.20;99.90;;;;;;4421011;32;20513;-68
2021/12/11 07:02:25;;;;;;;0.95;0.88;;;1.10;99.90;;;;;;4414362;32;20085;-69
2021/12/11 07:04:54;;;;;;;0.52;0.52;;;1.20;99.90;;;;;;4419441;32;20090;-67
2021/12/11 07:07:24;;;;;;;1.55;0.88;;;1.30;99.90;;;;;;4418150;32;20190;-67
2021/12/11 07:09:50;;;;;;;0.70;0.70;;;1.30;99.90;;;;;;4416636;32;20082;-68
2021/12/11 07:12:16;;;;;;;2.92;1.67;;;1.30;99.90;;;;;;4418165;32;20061;-68
2021/12/11 07:14:42;;;;;;;1.15;1.10;;;1.20;99.90;;;;;;4424868;32;20082;-67
2021/12/11 07:17:07;;;;;;;1.75;1.23;;;1.20;99.90;;;;;;4418719;32;20434;-67
2021/12/11 07:19:33;;;;;;;0.60;0.60;;;1.30;99.90;;;;;;4421162;32;20082;-67
2021/12/11 07:21:58;;;;;;;1.05;0.77;;;1.40;99.90;;;;;;4420707;32;20066;-67
2021/12/11 07:24:36;;;;;;;0.65;0.65;;;1.40;99.90;;;;;;4421760;32;20112;-67
2021/12/11 07:27:05;;;;;;;5.37;1.75;;;1.40;99.90;;;;;;4418411;32;20091;-68
2021/12/11 07:29:31;;;;;;;0.70;0.70;;;1.40;99.90;;;;;;4412929;32;20082;-67
2021/12/11 07:31:57;;;;;;;1.05;1.02;;;1.30;99.90;;;;;;4416544;32;20098;-67
2021/12/11 07:34:23;;;;;;;3.95;1.27;;;1.20;99.90;;;;;;4418582;32;20136;-67
2021/12/11 07:36:50;;;;;;;2.22;1.25;;;1.10;99.90;;;;;;4420313;32;21375;-67
2021/12/11 07:39:18;;;;;;;0.70;0.70;;;1.20;99.90;;;;;;4417634;32;20137;-68
2021/12/11 07:41:44;;;;;;;0.40;0.40;;;1.20;99.90;;;;;;4425537;32;20073;-67
2021/12/11 07:44:10;;;;;;;3.03;1.73;;;1.10;99.90;;;;;;4422603;32;20138;-67
2021/12/11 07:46:36;;;;;;;5.40;1.30;;;1.00;99.90;;;;;;4423086;32;20049;-67
2021/12/11 07:49:03;;;;;;;0.57;0.57;;;1.10;99.90;;;;;;4420323;32;20077;-67
2021/12/11 07:51:30;;;;;;;1.48;1.05;;;1.10;99.90;;;;;;4414754;32;20085;-68
2021/12/11 07:53:55;;;;;;;0.50;0.50;;;1.00;99.90;;;;;;4418623;32;20101;-68
2021/12/11 07:56:22;;;;;;;1.15;1.08;;;1.10;99.90;;;;;;4418472;32;20099;-68
2021/12/11 07:58:51;;;;;;;1.20;1.17;;;1.10;99.90;;;;;;4419325;32;20537;-68
2021/12/11 08:01:17;;;;;;;1.15;1.05;;;1.00;99.90;;;;;;4419091;32;20112;-68
2021/12/11 08:03:43;;;;;;;0.68;0.68;;;1.20;99.90;;;;;;4417062;32;20082;-68
2021/12/11 08:06:10;;;;;;;0.88;0.88;;;1.10;99.90;;;;;;4414555;32;20291;-68
2021/12/11 08:08:37;;;;;;;3.85;2.17;;;1.10;99.90;;;;;;4414923;32;20120;-68
2021/12/11 08:11:06;;;;;;;0.85;0.85;;;1.10;99.90;;;;;;4415958;32;20570;-68
2021/12/11 08:13:33;;;;;;;1.55;0.93;;;1.10;99.90;;;;;;4416463;32;20450;-70
2021/12/11 08:15:59;;;;;;;4.15;1.67;;;1.10;99.90;;;;;;4421068;32;20158;-68
2021/12/11 08:18:27;;;;;;;1.65;1.55;;;1.00;99.90;;;;;;4416749;32;20073;-68
2021/12/11 08:20:53;;;;;;;1.62;1.20;;;1.10;99.90;;;;;;4415721;32;20157;-68
2021/12/11 08:23:19;;;;;;;1.02;0.85;;;1.10;99.90;;;;;;4416501;32;20090;-68
2021/12/11 08:25:46;;;;;;;0.75;0.75;;;1.10;99.90;;;;;;4424649;32;20065;-68
2021/12/11 08:28:15;;;;;;;1.23;0.98;;;1.10;99.90;;;;;;4420346;32;20123;-68
2021/12/11 08:30:44;;;;;;;0.85;0.85;;;1.10;99.90;;;;;;4420320;32;20090;-68
2021/12/11 08:33:12;;;;;;;0.65;0.65;;;1.20;99.90;;;;;;4423440;32;20070;-68
2021/12/11 08:35:38;;;;;;;0.77;0.77;;;1.10;99.90;;;;;;4422639;32;20054;-68
2021/12/11 08:38:06;;;;;;;0.52;0.52;;;1.10;99.90;;;;;;4419240;32;20084;-67
2021/12/11 08:40:38;;;;;;;4.28;2.45;;;1.10;99.90;;;;;;4421879;32;20083;-68
2021/12/11 08:43:06;;;;;;;0.77;0.77;;;1.20;99.90;;;;;;4422078;32;20588;-68
2021/12/11 08:45:45;;;;;;;0.40;0.40;;;1.20;99.90;;;;;;4420782;32;20062;-68
2021/12/11 08:48:19;;;;;;;0.77;0.77;;;1.20;99.90;;;;;;4417523;32;20084;-68
2021/12/11 08:50:48;;;;;;;0.50;0.50;;;1.10;99.90;;;;;;4426563;32;20110;-68
2021/12/11 08:53:14;;;;;;;0.62;0.62;;;1.00;99.90;;;;;;4419069;32;20066;-68
2021/12/11 08:55:44;;;;;;;6.07;1.35;;;1.00;99.90;;;;;;4419324;32;20097;-68
2021/12/11 08:58:12;;;;;;;1.20;0.90;;;0.80;99.90;;;;;;4416335;32;20077;-68
2021/12/11 09:00:43;;;;;;;1.40;1.23;;;0.80;99.90;;;;;;4418298;32;20057;-67
2021/12/11 09:03:19;;;;;;;1.50;1.25;;;0.80;99.90;;;;;;4428127;32;20062;-68
2021/12/11 09:05:50;;;;;;;1.02;0.93;;;0.70;99.90;;;;;;4417499;32;20082;-68
2021/12/11 09:08:18;;;;;;;;;;;0.70;99.90;;;;;;4428992;32;20493;-68
2021/12/11 09:11:07;;;;;;;0.60;0.60;;;0.70;99.90;;;;;;4416830;32;19952;-68
2021/12/11 09:13:40;;;;;;;1.00;1.00;;;0.70;99.90;;;;;;4414102;32;20412;-68
2021/12/11 09:16:15;;;;;;;0.90;0.90;;;0.80;99.90;;;;;;4422919;32;20054;-68
2021/12/11 09:18:47;;;;;;;1.75;1.65;;;0.90;99.90;;;;;;4416051;32;20404;-68
2021/12/11 09:21:25;;;;;;;1.75;1.37;;;0.90;99.90;;;;;;4425063;32;20070;-68
2021/12/11 09:24:14;;;;;;;0.45;0.45;;;1.00;99.90;;;;;;4423847;32;20082;-68
2021/12/11 09:26:48;;;;;;;4.60;1.92;;;0.90;99.90;;;;;;4424065;32;20081;-68
2021/12/11 09:29:23;;;;;;;0.80;0.80;;;0.90;99.90;;;;;;4418145;32;20062;-68
2021/12/11 09:32:06;;;;;;;0.60;0.60;;;0.80;99.90;;;;;;4417769;32;20078;-68
2021/12/11 09:34:39;;;;;;;2.05;0.88;;;0.80;99.90;;;;;;4420618;32;20098;-68
2021/12/11 09:37:07;;;;;;;2.05;1.48;;;0.90;99.90;;;;;;4421015;32;20626;-67
2021/12/11 09:39:54;;;;;;;0.55;0.55;;;1.00;99.90;;;;;;4424519;32;20066;-68
2021/12/11 09:42:22;;;;;;;1.52;1.42;;;1.00;99.90;;;;;;4410536;32;20124;-68
2021/12/11 09:44:55;;;;;;;18.17;1.48;;;1.10;99.90;;;;;;4421754;32;20459;-68
2021/12/11 09:47:30;;;;;;;0.50;0.50;;;1.00;99.90;;;;;;4421493;32;20077;-68
2021/12/11 09:50:04;;;;;;;0.73;0.73;;;1.00;99.90;;;;;;4422449;32;20078;-67
2021/12/11 09:52:32;;;;;;;0.65;0.65;;;0.90;99.90;;;;;;4420730;32;20086;-68
2021/12/11 09:55:06;;;;;;;0.80;0.80;;;0.90;99.90;;;;;;4420495;32;20510;-67
2021/12/11 09:57:37;;;;;;;1.12;1.10;;;0.70;99.90;;;;;;4420366;32;20077;-68
2021/12/11 10:00:11;;;;;;;5.32;2.30;;;0.70;99.90;;;;;;4417641;32;20507;-68
2021/12/11 10:02:37;;;;;;;3.85;1.25;;;0.70;99.90;;;;;;4420494;32;20521;-68
2021/12/11 10:05:28;;;;;;;0.52;0.52;;;0.80;99.90;;;;;;4423438;32;20080;-68
2021/12/11 10:08:13;;;;;;;5.87;1.10;;;0.90;99.90;;;;;;4414623;32;20113;-68
2021/12/11 10:10:38;;;;;;;0.52;0.52;;;1.00;99.90;;;;;;4421533;32;20122;-68
2021/12/11 10:13:04;;;;;;;0.32;0.32;;;0.90;99.90;;;;;;4415779;32;20558;-67
2021/12/11 10:15:34;;;;;;;2.30;1.58;;;0.80;99.90;;;;;;4422917;32;20121;-67
2021/12/11 10:18:06;;;;;;;0.50;0.50;;;0.60;99.90;;;;;;4419809;32;20074;-68
2021/12/11 10:20:40;;;;;;;1.12;1.10;;;0.60;99.90;;;;;;4421912;32;20078;-68
2021/12/11 10:23:08;;;;;;;1.55;1.12;;;0.70;99.90;;;;;;4422262;32;20061;-68
2021/12/11 10:25:37;;;;;;;0.95;0.82;;;0.80;99.90;;;;;;4421992;32;20065;-68
2021/12/11 10:28:07;;;;;;;1.02;1.02;;;0.80;99.90;;;;;;4420101;32;20140;-68
2021/12/11 10:30:37;;;;;;;5.80;1.90;;;0.90;99.90;;;;;;4421711;32;20601;-68
2021/12/11 10:33:04;;;;;;;0.77;0.77;;;0.90;99.90;;;;;;4420400;32;20428;-68
2021/12/11 10:35:35;;;;;;;0.93;0.93;;;0.90;99.90;;;;;;4420931;32;20506;-68
2021/12/11 10:38:05;;;;;;;0.73;0.65;;;0.90;99.90;;;;;;4421199;32;20061;-67
2021/12/11 10:40:37;;;;;;;0.50;0.50;;;0.80;99.90;;;;;;4420364;32;20089;-68
2021/12/11 10:43:09;;;;;;;1.65;1.55;;;0.90;99.90;;;;;;4420140;32;20077;-68
2021/12/11 10:45:35;;;;;;;0.88;0.88;;;0.70;99.90;;;;;;4421887;32;20062;-68
2021/12/11 10:48:07;;;;;;;2.95;2.05;;;0.80;99.90;;;;;;4418738;32;20074;-68
2021/12/11 10:50:39;;;;;;;0.75;0.75;;;0.80;99.90;;;;;;4417293;32;20062;-68
2021/12/11 10:53:08;;;;;;;1.02;1.02;;;0.80;99.90;;;;;;4418395;32;20070;-68
2021/12/11 10:55:35;;;;;;;0.60;0.60;;;0.90;99.90;;;;;;4422576;32;20081;-68
2021/12/11 10:58:05;;;;;;;0.90;0.90;;;0.90;99.90;;;;;;4420641;32;20054;-68
2021/12/11 11:00:37;;;;;;;1.08;1.05;;;0.90;99.90;;;;;;4422175;32;20081;-69
2021/12/11 11:03:06;;;;;;;0.80;0.80;;;0.90;99.90;;;;;;4421664;32;20169;-69
2021/12/11 11:05:32;;;;;;;2.85;2.20;;;0.90;99.90;;;;;;4418371;32;20078;-68
2021/12/11 11:07:58;;;;;;;0.80;0.80;;;1.00;99.90;;;;;;4420036;32;20419;-69
2021/12/11 11:10:29;;;;;;;0.95;0.95;;;1.00;99.90;;;;;;4427585;32;20113;-68
2021/12/11 11:12:57;;;;;;;1.92;1.35;;;0.90;99.90;;;;;;4419678;32;20058;-68
2021/12/11 11:15:25;;;;;;;0.75;0.75;;;1.00;99.90;;;;;;4421085;32;20125;-69
2021/12/11 11:17:51;;;;;;;0.73;0.73;;;1.00;99.90;;;;;;4425098;32;20057;-68
2021/12/11 11:20:23;;;;;;;0.50;0.50;;;1.00;99.90;;;;;;4416511;32;20081;-69
2021/12/11 11:22:48;;;;;;;1.00;0.95;;;1.10;99.90;;;;;;4421095;32;20102;-68
2021/12/11 11:25:24;;;;;;;1.60;1.42;;;1.10;99.90;;;;;;4415642;32;20436;-69
2021/12/11 11:27:54;;;;;;;0.98;0.98;;;1.00;99.90;;;;;;4420159;32;20578;-68
2021/12/11 11:30:28;;;;;;;0.82;0.73;;;1.20;99.90;;;;;;4420773;32;20094;-68
2021/12/11 11:32:54;;;;;;;1.45;1.35;;;1.20;99.90;;;;;;4423036;32;20060;-69
2021/12/11 11:35:23;;;;;;;0.73;0.73;;;1.00;99.90;;;;;;4418229;32;20120;-68
2021/12/11 11:37:51;;;;;;;2.17;1.83;;;1.00;99.90;;;;;;4419572;32;20057;-68
2021/12/11 11:40:21;;;;;;;1.75;1.17;;;1.00;99.90;;;;;;4420357;32;20120;-68
2021/12/11 11:42:47;;;;;;;1.85;1.65;;;1.00;99.90;;;;;;4418268;32;20065;-68
2021/12/11 11:45:13;;;;;;;0.93;0.70;;;1.20;99.90;;;;;;4423988;32;20177;-69
2021/12/11 11:47:41;;;;;;;1.12;1.12;;;1.10;99.90;;;;;;4418447;32;20410;-69
2021/12/11 11:50:12;;;;;;;0.82;0.82;;;1.10;99.90;;;;;;4424906;32;20073;-68
2021/12/11 11:52:40;;;;;;;3.83;1.70;;;1.10;99.90;;;;;;4419724;32;20067;-68
2021/12/11 11:55:12;;;;;;;0.62;0.62;;;1.20;99.90;;;;;;4420335;32;20522;-68
2021/12/11 11:57:42;;;;;;;0.50;0.50;;;1.20;99.90;;;;;;4423734;32;20061;-68
2021/12/11 12:00:14;;;;;;;4.03;2.15;;;1.00;99.90;;;;;;4420064;32;20114;-68
2021/12/11 12:02:40;;;;;;;0.98;0.88;;;1.10;99.90;;;;;;4418214;32;20078;-68
2021/12/11 12:05:06;;;;;;;0.50;0.50;;;1.10;99.90;;;;;;4420044;32;20097;-67
2021/12/11 12:07:33;;;;;;;0.55;0.55;;;1.00;99.90;;;;;;4419943;32;20058;-67
2021/12/11 12:10:05;;;;;;;2.58;1.00;;;1.10;99.90;;;;;;4418260;32;20061;-67
2021/12/11 12:12:30;;;;;;;7.00;1.20;;;1.00;99.90;;;;;;4421457;32;20138;-67
2021/12/11 12:14:57;;;;;;;1.30;1.20;;;1.00;99.90;;;;;;4421235;32;20399;-67
2021/12/11 12:17:25;;;;;;;0.70;0.70;;;1.00;99.90;;;;;;4424040;32;20062;-67
2021/12/11 12:19:53;;;;;;;1.27;0.95;;;1.10;99.90;;;;;;4421494;32;20109;-69
2021/12/11 12:22:24;;;;;;;2.12;1.25;;;1.20;99.90;;;;;;4417641;32;20495;-67
2021/12/11 12:24:53;;;;;;;0.77;0.77;;;1.20;99.90;;;;;;4414721;32;20496;-67
2021/12/11 12:27:21;;;;;;;0.50;0.50;;;1.10;99.90;;;;;;4417243;32;20125;-67
2021/12/11 12:29:47;;;;;;;0.98;0.98;;;1.20;99.90;;;;;;4412860;32;20066;-67
2021/12/11 12:32:17;;;;;;;0.82;0.62;;;1.10;99.90;;;;;;4413429;32;20065;-67
2021/12/11 12:34:44;;;;;;;0.85;0.85;;;1.10;99.90;;;;;;4426098;32;20061;-67
2021/12/11 12:37:10;;;;;;;0.60;0.60;;;1.20;99.90;;;;;;4412704;32;20069;-67
2021/12/11 12:39:40;;;;;;;1.17;1.10;;;1.20;99.90;;;;;;4424277;32;20074;-67
2021/12/11 12:42:18;;;;;;;2.00;1.70;;;1.20;99.90;;;;;;4426348;32;20430;-67
2021/12/11 12:44:48;;;;;;;0.47;0.47;;;1.30;99.90;;;;;;4428476;32;20085;-67
2021/12/11 12:47:20;;;;;;;1.35;1.05;;;1.30;99.90;;;;;;4427011;32;20109;-67
2021/12/11 12:49:50;;;;;;;16.58;1.55;;;1.30;99.90;;;;;;4423477;32;20062;-67
2021/12/11 12:52:20;;;;;;;0.60;0.60;;;1.20;99.90;;;;;;4416397;32;20069;-67
2021/12/11 12:54:47;;;;;;;1.73;1.48;;;1.30;99.90;;;;;;4422593;32;21660;-67
2021/12/11 12:57:21;;;;;;;1.75;1.10;;;1.30;99.90;;;;;;4419564;32;20065;-67
2021/12/11 12:59:58;;;;;;;0.43;0.43;;;1.40;99.90;;;;;;4416610;32;20061;-68
2021/12/11 13:02:27;;;;;;;2.40;1.83;;;1.30;99.90;;;;;;4417216;32;20071;-68
2021/12/11 13:05:03;;;;;;;0.68;0.68;;;1.30;99.90;;;;;;4425498;32;20082;-68
2021/12/11 13:07:29;;;;;;;0.50;0.50;;;1.20;99.90;;;;;;4418448;32;20074;-69
2021/12/11 13:10:00;;;;;;;1.95;1.50;;;1.30;99.90;;;;;;4427204;32;20505;-68
2021/12/11 13:12:34;;;;;;;2.12;1.17;;;1.30;99.90;;;;;;4426979;32;20423;-68
2021/12/11 13:15:10;;;;;;;1.65;1.27;;;1.30;99.90;;;;;;4423242;32;20505;-68
2021/12/11 13:17:41;;;;;;;0.50;0.50;;;1.30;99.90;;;;;;4428413;32;20078;-69
2021/12/11 13:20:15;;;;;;;0.60;0.60;;;1.20;99.90;;;;;;4423329;32;20396;-69
2021/12/11 13:22:43;;;;;;;0.60;0.60;;;1.20;99.90;;;;;;4422517;32;20058;-68